createdAt,value
2023-01-03T00:01:08.101Z,3.33
2023-01-03T00:04:11.928Z,2.50
2023-01-03T00:07:33.668Z,2.43
2023-01-03T00:10:36.888Z,2.53
2023-01-03T00:13:39.642Z,2.53
2023-01-03T00:16:42.976Z,2.37
2023-01-03T00:19:46.875Z,2.67
2023-01-03T00:22:51.299Z,2.10
2023-01-03T00:25:55.573Z,2.17
2023-01-03T00:28:58.701Z,2.60
2023-01-03T00:32:01.672Z,4.77
2023-01-03T00:35:05.526Z,2.33
2023-01-03T00:38:09.848Z,1.53
2023-01-03T00:41:14.480Z,2.37
2023-01-03T00:44:17.600Z,2.47
2023-01-03T00:47:20.357Z,2.57
2023-01-03T00:50:23.044Z,2.63
2023-01-03T00:53:27.533Z,2.40
2023-01-03T00:56:32.987Z,4.07
2023-01-03T00:59:35.710Z,4.13
2023-01-03T01:02:38.981Z,4.37
2023-01-03T01:05:41.803Z,2.50
2023-01-03T01:08:46.768Z,4.87
2023-01-03T01:11:49.689Z,2.70
2023-01-03T01:14:52.808Z,4.20
2023-01-03T01:17:55.537Z,4.27
2023-01-03T01:20:58.519Z,2.53
2023-01-03T01:24:02.665Z,2.60
2023-01-03T01:27:05.878Z,3.20
2023-01-03T01:30:09.600Z,4.20
2023-01-03T01:33:12.327Z,6.77
2023-01-03T01:36:18.453Z,3.67
2023-01-03T01:39:25.012Z,3.67
2023-01-03T01:42:45.216Z,3.40
2023-01-03T01:45:48.606Z,4.63
2023-01-03T01:48:59.661Z,4.47
2023-01-03T01:52:03.311Z,6.43
2023-01-03T01:55:13.312Z,4.07
2023-01-03T01:58:17.238Z,3.63
2023-01-03T02:01:22.177Z,3.80
2023-01-03T02:04:28.589Z,3.87
2023-01-03T02:07:31.297Z,3.40
2023-01-03T02:10:51.329Z,3.53
2023-01-03T02:14:04.666Z,5.23
2023-01-03T02:17:15.770Z,3.70
2023-01-03T02:20:25.148Z,4.53
2023-01-03T02:23:44.886Z,4.47
2023-01-03T02:26:59.484Z,3.53
2023-01-03T02:30:39.581Z,7.13
2023-01-03T02:33:49.206Z,4.60
2023-01-03T02:37:02.278Z,4.83
2023-01-03T02:40:12.144Z,4.33
2023-01-03T02:43:22.622Z,5.87
2023-01-03T02:46:30.264Z,7.33
2023-01-03T02:49:39.217Z,3.93
2023-01-03T02:52:43.150Z,3.17
2023-01-03T02:55:47.798Z,3.00
2023-01-03T02:58:57.040Z,4.60
2023-01-03T03:02:02.978Z,4.20
2023-01-03T03:05:13.163Z,3.13
2023-01-03T03:08:15.931Z,4.13
2023-01-03T03:11:36.817Z,4.97
2023-01-03T03:14:43.931Z,4.67
2023-01-03T03:17:48.895Z,3.40
2023-01-03T03:21:11.503Z,5.83
2023-01-03T03:24:42.007Z,3.23
2023-01-03T03:28:06.408Z,4.17
2023-01-03T03:31:13.488Z,5.63
2023-01-03T03:34:22.647Z,7.03
2023-01-03T03:37:28.477Z,5.30
2023-01-03T03:40:53.272Z,4.50
2023-01-03T03:44:20.030Z,5.63
2023-01-03T03:47:31.188Z,8.27
2023-01-03T03:50:39.801Z,5.00
2023-01-03T03:53:45.795Z,5.07
2023-01-03T03:56:53.868Z,6.13
2023-01-03T04:00:02.455Z,7.90
2023-01-03T04:03:07.722Z,4.67
2023-01-03T04:06:22.447Z,4.40
2023-01-03T04:09:25.372Z,4.70
2023-01-03T04:12:28.463Z,5.23
2023-01-03T04:15:31.181Z,5.97
2023-01-03T04:18:34.323Z,4.63
2023-01-03T04:21:38.464Z,5.03
2023-01-03T04:24:41.177Z,5.10
2023-01-03T04:27:43.860Z,9.70
2023-01-03T04:30:47.940Z,5.57
2023-01-03T04:33:51.226Z,6.73
2023-01-03T04:36:55.371Z,5.33
2023-01-03T04:39:58.292Z,5.83
2023-01-03T04:43:18.505Z,4.83
2023-01-03T04:46:22.585Z,5.17
2023-01-03T04:49:25.397Z,3.97
2023-01-03T04:52:29.870Z,6.87
2023-01-03T04:55:32.618Z,4.17
2023-01-03T04:58:35.336Z,5.90
2023-01-03T05:01:38.517Z,2.90
2023-01-03T05:04:41.378Z,3.77
2023-01-03T05:07:45.485Z,5.43
2023-01-03T05:10:48.143Z,4.47
2023-01-03T05:13:50.940Z,3.10
2023-01-03T05:16:53.735Z,4.30
2023-01-03T05:20:13.795Z,3.27
2023-01-03T05:23:36.742Z,2.60
2023-01-03T05:26:41.769Z,6.20
2023-01-03T05:29:44.778Z,6.03
2023-01-03T05:32:47.552Z,5.47
2023-01-03T05:35:50.843Z,3.90
2023-01-03T05:38:54.941Z,4.63
2023-01-03T05:42:00.408Z,5.33
2023-01-03T05:45:03.772Z,6.17
2023-01-03T05:48:07.851Z,7.37
2023-01-03T05:51:10.502Z,5.03
2023-01-03T05:54:16.099Z,6.17
2023-01-03T05:57:18.798Z,5.20
2023-01-03T06:00:21.894Z,3.97
2023-01-03T06:03:24.865Z,4.00
2023-01-03T06:06:28.587Z,3.93
2023-01-03T06:09:32.882Z,4.23
2023-01-03T06:12:35.603Z,5.80
2023-01-03T06:15:38.318Z,7.17
2023-01-03T06:18:40.134Z,6.90
2023-01-03T06:21:42.948Z,6.10
2023-01-03T06:24:47.552Z,5.47
2023-01-03T06:27:50.319Z,7.20
2023-01-03T06:30:53.164Z,6.90
2023-01-03T06:33:56.122Z,5.00
2023-01-03T06:36:58.809Z,4.93
2023-01-03T06:40:03.411Z,4.50
2023-01-03T06:43:06.069Z,4.63
2023-01-03T06:46:27.647Z,4.30
2023-01-03T06:49:47.796Z,7.03
2023-01-03T06:53:07.874Z,15.53
2023-01-03T06:56:12.314Z,9.03
2023-01-03T06:59:15.055Z,12.73
2023-01-03T07:02:18.684Z,12.33
2023-01-03T07:05:21.629Z,8.33
2023-01-03T07:08:24.312Z,6.60
2023-01-03T07:11:28.612Z,6.40
2023-01-03T07:14:31.327Z,5.73
2023-01-03T07:17:34.020Z,7.17
2023-01-03T07:20:39.585Z,8.67
2023-01-03T07:23:42.610Z,7.53
2023-01-03T07:26:46.599Z,9.37
2023-01-03T07:29:49.220Z,9.47
2023-01-03T07:32:51.959Z,10.93
2023-01-03T07:36:03.626Z,10.47
2023-01-03T07:39:10.522Z,8.93
2023-01-03T07:42:32.562Z,9.90
2023-01-03T07:45:35.247Z,11.10
2023-01-03T07:48:38.091Z,10.33
2023-01-03T07:51:40.847Z,16.33
2023-01-03T07:54:43.617Z,7.17
2023-01-03T07:57:47.675Z,7.00
2023-01-03T08:00:50.419Z,8.63
2023-01-03T08:03:53.407Z,9.03
2023-01-03T08:06:56.215Z,7.67
2023-01-03T08:10:16.379Z,7.23
2023-01-03T08:13:20.924Z,6.07
2023-01-03T08:16:23.725Z,5.93
2023-01-03T08:19:26.622Z,6.43
2023-01-03T08:22:29.783Z,4.13
2023-01-03T08:25:32.558Z,4.10
2023-01-03T08:28:38.099Z,4.50
2023-01-03T08:31:45.111Z,7.20
2023-01-03T08:34:48.762Z,6.80
2023-01-03T08:37:53.256Z,5.93
2023-01-03T08:40:58.116Z,5.70
2023-01-03T08:44:06.083Z,8.30
2023-01-03T08:47:10.758Z,8.10
2023-01-03T08:50:14.034Z,9.03
2023-01-03T08:53:16.808Z,5.73
2023-01-03T08:56:19.938Z,12.07
2023-01-03T08:59:24.000Z,20.07
2023-01-03T09:02:27.246Z,12.83
2023-01-03T09:05:30.310Z,10.47
2023-01-03T09:08:34.168Z,7.57
2023-01-03T09:11:37.163Z,7.03
2023-01-03T09:14:41.252Z,7.40
2023-01-03T09:17:45.566Z,10.17
2023-01-03T09:20:52.615Z,6.77
2023-01-03T09:23:55.418Z,6.33
2023-01-03T09:26:58.675Z,7.93
2023-01-03T09:30:02.785Z,7.07
2023-01-03T09:33:05.940Z,8.50
2023-01-03T09:36:09.372Z,7.53
2023-01-03T09:39:12.164Z,8.80
2023-01-03T09:42:37.529Z,10.53
2023-01-03T09:45:44.501Z,10.23
2023-01-03T09:48:48.978Z,8.33
2023-01-03T09:52:10.665Z,19.70
2023-01-03T09:55:54.943Z,15.20
2023-01-03T09:59:18.903Z,14.17
2023-01-03T10:03:02.792Z,20.30
2023-01-03T10:06:17.118Z,13.50
2023-01-03T10:09:33.719Z,10.43
2023-01-03T10:12:47.590Z,9.00
2023-01-03T10:16:01.062Z,10.10
2023-01-03T10:19:16.773Z,12.23
2023-01-03T10:22:23.491Z,15.17
2023-01-03T10:25:26.238Z,15.17
2023-01-03T10:28:34.664Z,42.57
2023-01-03T10:31:52.827Z,17.80
2023-01-03T10:35:19.484Z,20.03
2023-01-03T10:38:23.324Z,32.53
2023-01-03T10:41:34.771Z,27.03
2023-01-03T10:44:37.535Z,27.47
2023-01-03T10:47:40.521Z,69.83
2023-01-03T10:50:45.093Z,67.43
2023-01-03T10:53:50.701Z,65.90
2023-01-03T10:56:54.051Z,68.80
2023-01-03T10:59:56.776Z,41.67
2023-01-03T11:03:12.068Z,33.90
2023-01-03T11:06:16.858Z,23.53
2023-01-03T11:09:19.643Z,18.73
2023-01-03T11:12:29.577Z,13.37
2023-01-03T11:15:39.798Z,13.93
2023-01-03T11:18:43.976Z,13.93
2023-01-03T11:21:55.200Z,6.77
2023-01-03T11:25:04.819Z,15.30
2023-01-03T11:28:48.234Z,34.03
2023-01-03T11:31:56.057Z,19.27
2023-01-03T11:35:41.071Z,21.93
2023-01-03T11:38:56.468Z,6.90
2023-01-03T11:42:34.806Z,14.53
2023-01-03T11:45:53.635Z,6.27
2023-01-03T11:49:16.469Z,4.73
2023-01-03T11:52:29.076Z,2.60
2023-01-03T11:55:55.057Z,5.73
2023-01-03T11:59:13.184Z,3.20
2023-01-03T12:02:58.746Z,2.90
2023-01-03T12:06:08.889Z,3.10
2023-01-03T12:09:22.366Z,3.57
2023-01-03T12:12:45.826Z,3.07
2023-01-03T12:15:51.935Z,3.93
2023-01-03T12:19:00.275Z,2.30
2023-01-03T12:22:11.832Z,2.23
2023-01-03T12:25:22.360Z,2.43
2023-01-03T12:28:33.525Z,3.17
2023-01-03T12:31:40.622Z,24.13
2023-01-03T12:34:51.452Z,12.70
2023-01-03T12:37:55.849Z,3.60
2023-01-03T12:41:07.853Z,1.60
2023-01-03T12:44:16.036Z,13.50
2023-01-03T12:47:26.751Z,5.10
2023-01-03T12:50:34.000Z,10.27
2023-01-03T12:53:46.928Z,4.57
2023-01-03T12:57:17.801Z,13.17
2023-01-03T13:00:34.435Z,5.20
2023-01-03T13:03:41.513Z,4.10
2023-01-03T13:06:51.170Z,4.30
2023-01-03T13:10:01.216Z,4.10
2023-01-03T13:13:05.864Z,4.93
2023-01-03T13:16:41.726Z,3.47
2023-01-03T13:19:57.271Z,7.00
2023-01-03T13:23:00.733Z,1.67
2023-01-03T13:26:24.114Z,2.90
2023-01-03T13:29:44.953Z,2.33
2023-01-03T13:32:52.737Z,1.73
2023-01-03T13:36:02.129Z,2.73
2023-01-03T13:39:32.340Z,2.23
2023-01-03T13:42:38.352Z,2.07
2023-01-03T13:45:54.277Z,3.53
2023-01-03T13:49:00.871Z,2.97
2023-01-03T13:52:06.269Z,2.00
2023-01-03T13:55:35.218Z,4.67
2023-01-03T13:58:42.011Z,2.60
2023-01-03T14:02:08.967Z,2.73
2023-01-03T14:05:56.274Z,6.47
2023-01-03T14:09:32.497Z,3.97
2023-01-03T14:13:07.636Z,3.57
2023-01-03T14:16:23.530Z,3.47
2023-01-03T14:19:30.659Z,3.73
2023-01-03T14:22:39.397Z,2.97
2023-01-03T14:25:43.530Z,4.03
2023-01-03T14:28:51.105Z,7.20
2023-01-03T14:31:56.251Z,2.37
2023-01-03T14:34:59.249Z,3.73
2023-01-03T14:38:07.068Z,5.03
2023-01-03T14:41:27.209Z,2.83
2023-01-03T14:44:30.996Z,2.60
2023-01-03T14:47:37.280Z,4.83
2023-01-03T14:50:43.289Z,6.07
2023-01-03T14:53:48.029Z,4.17
2023-01-03T14:56:50.775Z,3.50
2023-01-03T14:59:55.795Z,1.67
2023-01-03T15:03:00.107Z,4.83
2023-01-03T15:06:17.873Z,2.87
2023-01-03T15:09:23.759Z,3.10
2023-01-03T15:12:26.500Z,3.60
2023-01-03T15:15:39.326Z,4.03
2023-01-03T15:18:44.323Z,2.80
2023-01-03T15:21:47.445Z,5.00
2023-01-03T15:25:03.181Z,8.30
2023-01-03T15:28:25.336Z,10.10
2023-01-03T15:31:37.277Z,7.63
2023-01-03T15:34:42.779Z,9.53
2023-01-03T15:37:45.497Z,12.13
2023-01-03T15:40:51.104Z,10.73
2023-01-03T15:43:52.873Z,14.80
2023-01-03T15:46:59.322Z,14.27
2023-01-03T15:50:06.903Z,15.90
2023-01-03T15:53:21.974Z,15.17
2023-01-03T15:56:31.304Z,17.57
2023-01-03T15:59:43.064Z,16.50
2023-01-03T16:02:46.986Z,14.17
2023-01-03T16:05:49.841Z,13.63
2023-01-03T16:08:52.899Z,13.23
2023-01-03T16:11:59.364Z,10.33
2023-01-03T16:15:04.417Z,13.20
2023-01-03T16:18:07.351Z,19.07
2023-01-03T16:21:10.482Z,28.57
2023-01-03T16:24:17.062Z,32.67
2023-01-03T16:27:23.352Z,24.50
2023-01-03T16:30:26.067Z,16.40
2023-01-03T16:33:32.223Z,12.67
2023-01-03T16:36:37.340Z,14.97
2023-01-03T16:39:47.476Z,20.93
2023-01-03T16:42:51.988Z,14.27
2023-01-03T16:45:59.130Z,10.87
2023-01-03T16:49:02.183Z,17.40
2023-01-03T16:52:05.132Z,14.93
2023-01-03T16:55:16.262Z,11.97
2023-01-03T16:58:21.648Z,12.80
2023-01-03T17:01:24.423Z,9.67
2023-01-03T17:04:27.228Z,12.20
2023-01-03T17:07:30.332Z,10.60
2023-01-03T17:10:35.542Z,10.07
2023-01-03T17:13:42.374Z,13.40
2023-01-03T17:16:45.920Z,7.40
2023-01-03T17:20:06.214Z,16.23
2023-01-03T17:23:10.216Z,14.97
2023-01-03T17:26:16.098Z,13.83
2023-01-03T17:29:22.901Z,26.53
2023-01-03T17:32:25.746Z,24.83
2023-01-03T17:35:28.738Z,28.17
2023-01-03T17:38:33.458Z,25.30
2023-01-03T17:41:56.803Z,14.70
2023-01-03T17:45:18.197Z,14.07
2023-01-03T17:48:38.338Z,15.87
2023-01-03T17:51:41.056Z,11.73
2023-01-03T17:54:43.777Z,15.90
2023-01-03T17:57:46.992Z,12.37
2023-01-03T18:00:52.002Z,14.50
2023-01-03T18:03:54.769Z,15.43
2023-01-03T18:07:00.283Z,13.00
2023-01-03T18:10:03.531Z,10.10
2023-01-03T18:13:12.892Z,19.10
2023-01-03T18:16:19.296Z,9.93
2023-01-03T18:19:22.049Z,9.77
2023-01-03T18:22:25.457Z,11.03
2023-01-03T18:25:28.843Z,9.57
2023-01-03T18:28:31.803Z,11.40
2023-01-03T18:31:36.007Z,14.93
2023-01-03T18:34:38.812Z,14.60
2023-01-03T18:37:41.757Z,14.80
2023-01-03T18:40:44.498Z,17.40
2023-01-03T18:43:47.171Z,18.13
2023-01-03T18:46:52.768Z,16.63
2023-01-03T18:49:55.523Z,26.00
2023-01-03T18:53:02.195Z,10.13
2023-01-03T18:56:05.584Z,9.87
2023-01-03T18:59:14.438Z,8.67
2023-01-03T19:02:20.668Z,10.37
2023-01-03T19:05:23.844Z,16.53
2023-01-03T19:08:28.857Z,17.07
2023-01-03T19:11:34.867Z,16.13
2023-01-03T19:14:40.830Z,21.80
2023-01-03T19:17:47.644Z,22.10
2023-01-03T19:20:51.855Z,41.07
2023-01-03T19:24:01.055Z,20.03
2023-01-03T19:27:07.959Z,13.47
2023-01-03T19:30:18.653Z,11.10
2023-01-03T19:33:22.859Z,17.00
2023-01-03T19:36:25.568Z,15.60
2023-01-03T19:39:33.669Z,16.40
2023-01-03T19:42:48.392Z,15.20
2023-01-03T19:45:51.144Z,13.63
2023-01-03T19:48:55.199Z,16.83
2023-01-03T19:51:57.955Z,14.40
2023-01-03T19:55:00.708Z,11.43
2023-01-03T19:58:06.478Z,12.73
2023-01-03T20:01:16.280Z,12.83
2023-01-03T20:04:20.600Z,17.57
2023-01-03T20:07:23.443Z,16.47
2023-01-03T20:10:27.700Z,13.93
2023-01-03T20:13:30.658Z,11.70
2023-01-03T20:16:33.503Z,14.77
2023-01-03T20:19:38.165Z,17.33
2023-01-03T20:26:05.726Z,13.83
2023-01-03T20:29:11.474Z,13.20
2023-01-03T20:32:14.275Z,15.33
2023-01-03T20:38:46.410Z,24.27
2023-01-03T20:41:49.140Z,17.50
2023-01-03T20:44:51.880Z,16.50
2023-01-03T20:47:54.924Z,18.90
2023-01-03T20:50:58.976Z,20.20
2023-01-03T20:54:02.081Z,29.20
2023-01-03T20:57:10.737Z,17.60
2023-01-03T21:00:27.756Z,20.13
2023-01-03T21:03:30.443Z,19.60
2023-01-03T21:06:35.365Z,19.83
2023-01-03T21:09:38.113Z,17.03
2023-01-03T21:12:40.838Z,19.57
2023-01-03T21:15:43.712Z,19.07
2023-01-03T21:18:46.389Z,14.97
2023-01-03T21:21:52.001Z,15.80
2023-01-03T21:24:57.774Z,21.43
2023-01-03T21:28:01.684Z,17.60
2023-01-03T21:31:05.683Z,19.30
2023-01-03T21:34:15.662Z,17.93
2023-01-03T21:37:19.732Z,15.27
2023-01-03T21:40:25.793Z,15.30
2023-01-03T21:43:29.073Z,11.73
2023-01-03T21:46:32.429Z,21.40
2023-01-03T21:49:35.433Z,16.73
2023-01-03T21:52:39.450Z,21.23
2023-01-03T21:55:42.840Z,22.70
2023-01-03T21:58:45.731Z,24.73
2023-01-03T22:02:06.702Z,26.00
2023-01-03T22:05:10.492Z,23.47
2023-01-03T22:08:14.726Z,31.73
2023-01-03T22:11:17.702Z,29.67
2023-01-03T22:14:20.561Z,27.53
2023-01-03T22:17:23.232Z,27.13
2023-01-03T22:20:30.891Z,27.13
2023-01-03T22:23:38.463Z,16.37
2023-01-03T22:26:43.716Z,23.07
2023-01-03T22:29:46.400Z,17.87
2023-01-03T22:32:49.534Z,19.07
2023-01-03T22:35:52.211Z,14.00
2023-01-03T22:38:56.719Z,19.87
2023-01-03T22:41:59.586Z,21.10
2023-01-03T22:45:02.925Z,19.83
2023-01-03T22:48:06.090Z,20.73
2023-01-03T22:51:12.135Z,19.20
2023-01-03T22:54:16.283Z,24.00
2023-01-03T22:57:19.028Z,21.43
2023-01-03T23:00:21.981Z,27.17
2023-01-03T23:03:24.793Z,28.17
2023-01-03T23:06:30.285Z,22.73
2023-01-03T23:09:34.589Z,19.67
2023-01-03T23:12:55.872Z,20.57
2023-01-03T23:15:58.581Z,19.03
2023-01-03T23:19:04.035Z,19.83
2023-01-03T23:22:07.015Z,18.60
2023-01-03T23:25:11.494Z,19.70
2023-01-03T23:28:14.739Z,19.93
2023-01-03T23:31:17.809Z,21.03
2023-01-03T23:34:20.958Z,15.50
2023-01-03T23:37:23.716Z,16.57
2023-01-03T23:40:27.768Z,18.67
2023-01-03T23:43:30.528Z,21.40
2023-01-03T23:46:33.365Z,17.93
2023-01-03T23:49:36.197Z,24.60
2023-01-03T23:52:38.988Z,14.67
2023-01-03T23:55:43.108Z,14.07
2023-01-03T23:58:46.283Z,13.00
